createdAt,value
2023-05-12T00:00:44.704Z,0.88
2023-05-12T00:03:12.721Z,0.70
2023-05-12T00:05:40.334Z,0.90
2023-05-12T00:08:10.283Z,0.88
2023-05-12T00:10:39.374Z,1.10
2023-05-12T00:13:06.952Z,0.80
2023-05-12T00:15:34.679Z,1.30
2023-05-12T00:18:02.428Z,1.27
2023-05-12T00:20:31.479Z,1.10
2023-05-12T00:22:59.370Z,0.70
2023-05-12T00:25:27.099Z,0.90
2023-05-12T00:27:56.018Z,0.80
2023-05-12T00:30:23.699Z,0.80
2023-05-12T00:32:51.270Z,0.70
2023-05-12T00:35:18.810Z,0.60
2023-05-12T00:37:47.112Z,0.93
2023-05-12T00:40:14.777Z,0.80
2023-05-12T00:42:42.296Z,0.60
2023-05-12T00:45:12.171Z,1.00
2023-05-12T00:47:40.336Z,0.82
2023-05-12T00:50:08.549Z,1.17
2023-05-12T00:52:36.574Z,0.80
2023-05-12T00:55:05.351Z,0.70
2023-05-12T00:57:34.009Z,0.90
2023-05-12T01:00:01.797Z,0.98
2023-05-12T01:02:31.153Z,0.90
2023-05-12T01:04:58.839Z,0.97
2023-05-12T01:07:27.405Z,0.50
2023-05-12T01:09:55.486Z,0.98
2023-05-12T01:12:23.079Z,0.60
2023-05-12T01:14:51.551Z,0.98
2023-05-12T01:17:20.543Z,0.80
2023-05-12T01:19:50.495Z,0.88
2023-05-12T01:22:18.432Z,0.90
2023-05-12T01:24:51.490Z,0.80
2023-05-12T01:27:21.911Z,0.98
2023-05-12T01:29:50.539Z,1.00
2023-05-12T01:32:19.048Z,0.70
2023-05-12T01:34:48.018Z,0.75
2023-05-12T01:37:15.848Z,0.90
2023-05-12T01:39:43.515Z,0.70
2023-05-12T01:42:11.157Z,0.87
2023-05-12T01:44:41.836Z,0.68
2023-05-12T01:47:11.462Z,0.80
2023-05-12T01:49:39.169Z,0.77
2023-05-12T01:52:06.965Z,1.20
2023-05-12T01:54:34.554Z,1.10
2023-05-12T01:57:02.263Z,1.05
2023-05-12T01:59:30.087Z,1.52
2023-05-12T02:01:59.086Z,1.30
2023-05-12T02:04:27.169Z,1.05
2023-05-12T02:06:54.772Z,1.10
2023-05-12T02:09:22.816Z,0.90
2023-05-12T02:11:50.550Z,0.85
2023-05-12T02:14:18.114Z,0.75
2023-05-12T02:16:47.223Z,0.73
2023-05-12T02:19:16.272Z,1.00
2023-05-12T02:21:46.097Z,1.02
2023-05-12T02:24:14.980Z,1.05
2023-05-12T02:26:42.693Z,0.75
2023-05-12T02:29:10.694Z,1.05
2023-05-12T02:31:38.306Z,1.10
2023-05-12T02:34:06.845Z,1.10
2023-05-12T02:36:35.894Z,0.90
2023-05-12T02:39:03.519Z,1.00
2023-05-12T02:41:31.141Z,1.40
2023-05-12T02:43:58.949Z,1.17
2023-05-12T02:46:26.564Z,1.17
2023-05-12T02:48:54.182Z,1.40
2023-05-12T02:51:21.679Z,1.27
2023-05-12T02:53:50.606Z,1.30
2023-05-12T02:56:18.542Z,1.50
2023-05-12T02:58:46.159Z,2.38
2023-05-12T03:01:13.812Z,2.30
2023-05-12T03:03:41.710Z,2.30
2023-05-12T03:06:09.441Z,2.90
2023-05-12T03:08:37.275Z,2.70
2023-05-12T03:11:06.413Z,3.67
2023-05-12T03:13:34.433Z,3.72
2023-05-12T03:16:02.152Z,3.47
2023-05-12T03:18:29.999Z,4.35
2023-05-12T03:20:57.665Z,4.03
2023-05-12T03:23:25.269Z,3.90
2023-05-12T03:25:52.865Z,3.83
2023-05-12T03:28:22.964Z,4.07
2023-05-12T03:30:50.554Z,4.35
2023-05-12T03:33:18.228Z,3.77
2023-05-12T03:35:45.928Z,4.57
2023-05-12T03:38:14.083Z,4.85
2023-05-12T03:40:41.597Z,4.63
2023-05-12T03:43:09.139Z,4.97
2023-05-12T03:45:38.213Z,4.40
2023-05-12T03:48:07.149Z,5.03
2023-05-12T03:50:34.747Z,5.30
2023-05-12T03:53:02.379Z,5.07
2023-05-12T03:55:29.960Z,5.22
2023-05-12T03:57:57.686Z,5.43
2023-05-12T04:00:25.341Z,5.30
2023-05-12T04:02:54.315Z,5.88
2023-05-12T04:05:21.926Z,6.15
2023-05-12T04:07:51.071Z,6.60
2023-05-12T04:10:19.163Z,6.03
2023-05-12T04:12:46.991Z,5.80
2023-05-12T04:15:15.660Z,6.85
2023-05-12T04:17:43.290Z,6.05
2023-05-12T04:20:12.743Z,6.53
2023-05-12T04:22:40.529Z,6.27
2023-05-12T04:25:08.692Z,5.70
2023-05-12T04:27:36.172Z,5.78
2023-05-12T04:30:03.974Z,6.05
2023-05-12T04:32:31.555Z,6.78
2023-05-12T04:34:59.189Z,5.80
2023-05-12T04:37:28.292Z,6.75
2023-05-12T04:39:55.872Z,6.78
2023-05-12T04:42:23.407Z,5.88
2023-05-12T04:44:51.073Z,6.03
2023-05-12T04:47:18.621Z,5.80
2023-05-12T04:49:46.971Z,6.22
2023-05-12T04:52:14.627Z,5.65
2023-05-12T04:54:43.694Z,5.63
2023-05-12T04:57:11.253Z,4.88
2023-05-12T04:59:41.627Z,5.73
2023-05-12T05:02:09.260Z,4.45
2023-05-12T05:04:36.956Z,5.15
2023-05-12T05:07:04.604Z,5.53
2023-05-12T05:09:33.858Z,4.43
2023-05-12T05:12:04.036Z,4.90
2023-05-12T05:14:31.761Z,5.07
2023-05-12T05:16:59.911Z,5.32
2023-05-12T05:19:40.316Z,5.65
2023-05-12T05:22:15.975Z,4.78
2023-05-12T05:24:43.600Z,4.30
2023-05-12T05:27:12.690Z,4.78
2023-05-12T05:29:40.350Z,5.45
2023-05-12T05:32:08.380Z,4.90
2023-05-12T05:34:38.210Z,5.05
2023-05-12T05:37:06.244Z,4.93
2023-05-12T05:39:33.902Z,4.63
2023-05-12T05:42:01.427Z,4.85
2023-05-12T05:44:30.373Z,5.07
2023-05-12T05:46:58.452Z,4.05
2023-05-12T05:49:25.984Z,4.70
2023-05-12T05:51:53.756Z,4.88
2023-05-12T05:54:21.476Z,4.90
2023-05-12T05:56:49.032Z,4.68
2023-05-12T05:59:16.583Z,4.10
2023-05-12T06:01:46.030Z,3.20
2023-05-12T06:04:13.813Z,3.67
2023-05-12T06:06:43.005Z,2.97
2023-05-12T06:09:12.379Z,2.25
2023-05-12T06:11:40.371Z,2.47
2023-05-12T06:14:08.186Z,2.77
2023-05-12T06:16:36.029Z,3.17
2023-05-12T06:19:06.803Z,2.72
2023-05-12T06:21:35.024Z,2.88
2023-05-12T06:24:02.587Z,2.60
2023-05-12T06:26:31.266Z,2.43
2023-05-12T06:28:58.796Z,3.20
2023-05-12T06:31:26.941Z,2.30
2023-05-12T06:33:55.356Z,2.55
2023-05-12T06:36:24.262Z,3.40
2023-05-12T06:38:52.620Z,3.37
2023-05-12T06:41:22.020Z,2.50
2023-05-12T06:43:49.575Z,3.13
2023-05-12T06:46:17.798Z,2.83
2023-05-12T06:48:46.045Z,2.40
2023-05-12T06:51:14.120Z,2.70
2023-05-12T06:53:43.174Z,3.08
2023-05-12T06:56:11.593Z,3.28
2023-05-12T06:58:39.252Z,2.60
2023-05-12T07:01:06.915Z,3.17
2023-05-12T07:03:34.744Z,3.13
2023-05-12T07:06:02.365Z,3.30
2023-05-12T07:08:30.260Z,3.00
2023-05-12T07:11:00.767Z,3.28
2023-05-12T07:13:28.660Z,3.30
2023-05-12T07:15:56.560Z,3.60
2023-05-12T07:18:24.933Z,3.35
2023-05-12T07:20:53.415Z,3.20
2023-05-12T07:23:21.066Z,2.83
2023-05-12T07:25:48.787Z,3.17
2023-05-12T07:28:17.689Z,3.10
2023-05-12T07:30:45.557Z,3.55
2023-05-12T07:33:13.555Z,3.10
2023-05-12T07:35:41.107Z,3.30
2023-05-12T07:38:09.671Z,2.70
2023-05-12T07:40:37.629Z,2.80
2023-05-12T07:43:05.116Z,2.67
2023-05-12T07:45:34.179Z,2.50
2023-05-12T07:48:01.832Z,2.92
2023-05-12T07:50:29.421Z,2.35
2023-05-12T07:52:57.011Z,3.33
2023-05-12T07:55:25.675Z,2.78
2023-05-12T07:57:53.441Z,2.92
2023-05-12T08:00:21.210Z,2.80
2023-05-12T08:02:50.462Z,3.35
2023-05-12T08:05:18.382Z,2.40
2023-05-12T08:07:46.801Z,2.45
2023-05-12T08:10:14.953Z,2.60
2023-05-12T08:12:42.464Z,2.45
2023-05-12T08:15:10.618Z,2.58
2023-05-12T08:17:38.384Z,3.17
2023-05-12T08:20:09.107Z,2.47
2023-05-12T08:22:36.700Z,2.15
2023-05-12T08:25:04.945Z,2.72
2023-05-12T08:27:32.464Z,2.50
2023-05-12T08:30:00.259Z,2.10
2023-05-12T08:32:28.584Z,2.50
2023-05-12T08:35:02.332Z,2.67
2023-05-12T08:37:34.349Z,2.58
2023-05-12T08:40:05.289Z,2.47
2023-05-12T08:42:37.688Z,2.00
2023-05-12T08:45:06.506Z,2.05
2023-05-12T08:47:35.474Z,1.95
2023-05-12T08:50:06.292Z,2.63
2023-05-12T08:52:35.944Z,2.42
2023-05-12T08:55:04.876Z,2.30
2023-05-12T08:57:32.412Z,2.30
2023-05-12T09:00:01.495Z,2.40
2023-05-12T09:02:44.674Z,2.10
2023-05-12T09:05:20.029Z,2.13
2023-05-12T09:07:50.738Z,2.30
2023-05-12T09:10:33.784Z,1.63
2023-05-12T09:13:04.323Z,2.05
2023-05-12T09:15:34.661Z,2.53
2023-05-12T09:18:02.474Z,2.67
2023-05-12T09:20:31.954Z,2.60
2023-05-12T09:23:12.449Z,2.85
2023-05-12T09:25:40.207Z,3.00
2023-05-12T09:28:07.853Z,2.97
2023-05-12T09:30:38.200Z,2.75
2023-05-12T09:33:09.713Z,2.73
2023-05-12T09:35:41.398Z,3.15
2023-05-12T09:38:11.478Z,2.88
2023-05-12T09:40:39.491Z,3.50
2023-05-12T09:43:07.534Z,3.15
2023-05-12T09:45:36.457Z,3.67
2023-05-12T09:48:12.508Z,3.45
2023-05-12T09:50:48.371Z,3.75
2023-05-12T09:53:19.250Z,2.63
2023-05-12T09:55:48.559Z,2.35
2023-05-12T09:58:17.136Z,2.57
2023-05-12T10:01:12.706Z,2.00
2023-05-12T10:03:34.505Z,2.10
2023-05-12T10:06:05.650Z,2.55
2023-05-12T10:08:39.171Z,2.85
2023-05-12T10:11:07.382Z,1.97
2023-05-12T10:13:35.089Z,2.25
2023-05-12T10:16:03.777Z,2.78
2023-05-12T10:18:32.714Z,3.13
2023-05-12T10:21:00.836Z,2.58
2023-05-12T10:23:28.790Z,2.20
2023-05-12T10:26:01.739Z,2.50
2023-05-12T10:28:29.463Z,2.70
2023-05-12T10:30:57.871Z,2.05
2023-05-12T10:33:25.652Z,2.05
2023-05-12T10:35:53.733Z,2.53
2023-05-12T10:38:21.347Z,2.53
2023-05-12T10:40:57.897Z,2.67
2023-05-12T10:43:27.886Z,2.20
2023-05-12T10:46:08.603Z,2.50
2023-05-12T10:48:37.724Z,2.23
2023-05-12T10:51:08.513Z,3.00
2023-05-12T10:53:48.360Z,3.20
2023-05-12T10:56:22.790Z,2.33
2023-05-12T10:59:05.562Z,2.35
2023-05-12T11:01:35.973Z,2.30
2023-05-12T11:04:14.282Z,2.65
2023-05-12T11:06:43.091Z,3.08
2023-05-12T11:09:13.149Z,2.30
2023-05-12T11:11:41.450Z,2.90
2023-05-12T11:14:09.585Z,2.67
2023-05-12T11:16:46.653Z,2.70
2023-05-12T11:19:14.705Z,2.55
2023-05-12T11:21:42.566Z,2.70
2023-05-12T11:24:14.394Z,2.50
2023-05-12T11:26:42.248Z,2.00
2023-05-12T11:29:09.960Z,2.20
2023-05-12T11:31:38.019Z,1.80
2023-05-12T11:34:13.154Z,1.80
2023-05-12T11:36:42.228Z,2.22
2023-05-12T11:39:14.221Z,2.43
2023-05-12T11:41:41.966Z,2.30
2023-05-12T11:44:19.813Z,2.30
2023-05-12T11:46:58.115Z,2.20
2023-05-12T11:49:27.375Z,2.00
2023-05-12T11:51:55.594Z,2.30
2023-05-12T11:54:23.765Z,2.05
2023-05-12T11:56:51.904Z,1.98
2023-05-12T11:59:29.814Z,2.30
2023-05-12T12:01:57.752Z,1.98
2023-05-12T12:04:36.931Z,2.50
2023-05-12T12:07:07.155Z,2.63
2023-05-12T12:09:36.366Z,2.45
2023-05-12T12:12:05.101Z,2.13
2023-05-12T12:14:33.543Z,1.90
2023-05-12T12:17:01.293Z,1.73
2023-05-12T12:19:29.229Z,2.33
2023-05-12T12:21:58.795Z,2.55
2023-05-12T12:24:26.576Z,1.70
2023-05-12T12:26:54.297Z,2.10
2023-05-12T12:29:23.812Z,1.63
2023-05-12T12:31:51.592Z,2.22
2023-05-12T12:34:19.694Z,2.20
2023-05-12T12:36:48.274Z,2.15
2023-05-12T12:39:19.641Z,2.78
2023-05-12T12:41:49.036Z,2.30
2023-05-12T12:44:16.590Z,2.65
2023-05-12T12:46:44.335Z,2.10
2023-05-12T12:49:12.024Z,1.80
2023-05-12T12:51:46.088Z,2.08
2023-05-12T12:54:14.678Z,2.33
2023-05-12T12:56:45.160Z,2.13
2023-05-12T12:59:13.472Z,1.85
2023-05-12T13:01:41.124Z,1.80
2023-05-12T13:04:08.716Z,1.98
2023-05-12T13:06:36.402Z,2.20
2023-05-12T13:09:04.070Z,2.30
2023-05-12T13:11:32.328Z,2.20
2023-05-12T13:14:02.309Z,2.40
2023-05-12T13:16:30.209Z,2.08
2023-05-12T13:18:57.930Z,2.10
2023-05-12T13:21:26.070Z,1.88
2023-05-12T13:23:53.816Z,2.03
2023-05-12T13:26:21.335Z,1.85
2023-05-12T13:28:49.135Z,1.90
2023-05-12T13:31:18.796Z,1.80
2023-05-12T13:33:46.401Z,1.60
2023-05-12T13:36:13.955Z,2.08
2023-05-12T13:38:42.688Z,2.05
2023-05-12T13:41:10.211Z,2.00
2023-05-12T13:43:37.811Z,1.80
2023-05-12T13:46:05.639Z,2.47
2023-05-12T13:48:34.580Z,2.30
2023-05-12T13:51:02.100Z,2.38
2023-05-12T13:53:29.697Z,1.55
2023-05-12T13:55:57.217Z,1.60
2023-05-12T13:58:24.915Z,1.80
2023-05-12T14:00:52.740Z,1.90
2023-05-12T14:03:20.569Z,1.77
2023-05-12T14:05:49.613Z,2.50
2023-05-12T14:08:17.334Z,2.10
2023-05-12T14:10:45.123Z,2.53
2023-05-12T14:13:13.798Z,2.10
2023-05-12T14:15:48.500Z,1.55
2023-05-12T14:18:17.241Z,1.67
2023-05-12T14:20:45.177Z,1.30
2023-05-12T14:23:15.064Z,1.35
2023-05-12T14:25:42.613Z,1.98
2023-05-12T14:28:10.358Z,1.60
2023-05-12T14:30:38.759Z,1.52
2023-05-12T14:33:06.544Z,1.80
2023-05-12T14:35:34.272Z,1.52
2023-05-12T14:38:02.061Z,2.17
2023-05-12T14:40:31.052Z,2.10
2023-05-12T14:42:59.668Z,1.98
2023-05-12T14:45:28.427Z,2.53
2023-05-12T14:47:56.112Z,1.95
2023-05-12T14:50:24.200Z,2.22
2023-05-12T14:52:51.818Z,2.40
2023-05-12T14:55:20.344Z,2.00
2023-05-12T14:57:50.054Z,2.10
2023-05-12T15:00:18.165Z,2.22
2023-05-12T15:02:46.349Z,1.77
2023-05-12T15:05:14.473Z,1.95
2023-05-12T15:07:41.996Z,1.67
2023-05-12T15:10:09.923Z,1.90
2023-05-12T15:12:37.538Z,1.63
2023-05-12T15:15:11.437Z,1.92
2023-05-12T15:17:39.277Z,1.73
2023-05-12T15:20:08.040Z,2.00
2023-05-12T15:22:35.632Z,1.80
2023-05-12T15:25:04.542Z,1.48
2023-05-12T15:27:32.965Z,1.77
2023-05-12T15:30:00.587Z,1.33
2023-05-12T15:32:29.546Z,2.17
2023-05-12T15:34:57.895Z,1.77
2023-05-12T15:37:26.046Z,1.40
2023-05-12T15:39:53.654Z,2.10
2023-05-12T15:42:26.166Z,1.75
2023-05-12T15:44:57.606Z,1.85
2023-05-12T15:47:26.065Z,1.80
2023-05-12T15:49:55.027Z,1.77
2023-05-12T15:52:23.012Z,1.88
2023-05-12T15:54:50.907Z,1.65
2023-05-12T15:57:18.621Z,1.70
2023-05-12T15:59:46.905Z,1.83
2023-05-12T16:02:14.519Z,1.90
2023-05-12T16:04:45.069Z,1.63
2023-05-12T16:07:14.365Z,1.50
2023-05-12T16:09:42.080Z,1.90
2023-05-12T16:12:11.343Z,1.80
2023-05-12T16:14:38.962Z,1.90
2023-05-12T16:19:43.246Z,1.48
2023-05-12T16:22:10.931Z,1.70
2023-05-12T16:24:39.813Z,1.83
2023-05-12T16:27:07.533Z,1.75
2023-05-12T16:29:35.204Z,1.40
2023-05-12T16:32:02.791Z,1.80
2023-05-12T16:34:30.449Z,1.50
2023-05-12T16:36:58.025Z,1.70
2023-05-12T16:39:25.533Z,1.98
2023-05-12T16:41:54.724Z,1.90
2023-05-12T16:44:22.372Z,2.40
2023-05-12T16:46:50.171Z,1.80
2023-05-12T16:49:17.871Z,1.63
2023-05-12T16:51:45.612Z,1.60
2023-05-12T16:54:13.312Z,1.80
2023-05-12T16:56:40.988Z,1.80
2023-05-12T16:59:09.858Z,1.77
2023-05-12T17:01:39.353Z,1.60
2023-05-12T17:04:07.865Z,1.98
2023-05-12T17:06:35.816Z,2.15
2023-05-12T17:09:03.518Z,1.50
2023-05-12T17:11:32.803Z,2.08
2023-05-12T17:14:00.902Z,1.80
2023-05-12T17:16:29.897Z,2.08
2023-05-12T17:21:28.555Z,1.70
2023-05-12T17:23:57.201Z,2.05
2023-05-12T17:26:27.577Z,1.80
2023-05-12T17:28:55.186Z,1.80
2023-05-12T17:31:23.115Z,2.05
2023-05-12T17:33:52.585Z,1.83
2023-05-12T17:36:20.361Z,1.50
2023-05-12T17:38:48.261Z,1.60
2023-05-12T17:41:16.176Z,1.90
2023-05-12T17:43:43.996Z,2.22
2023-05-12T17:46:11.791Z,1.73
2023-05-12T17:48:39.491Z,1.73
2023-05-12T17:51:08.578Z,1.50
2023-05-12T17:53:36.350Z,1.63
2023-05-12T17:56:04.073Z,2.00
2023-05-12T17:58:31.568Z,1.85
2023-05-12T18:00:59.271Z,1.70
2023-05-12T18:03:27.105Z,1.63
2023-05-12T18:05:55.350Z,2.03
2023-05-12T18:08:24.291Z,1.98
2023-05-12T18:10:51.999Z,1.63
2023-05-12T18:13:19.551Z,1.73
2023-05-12T18:15:49.169Z,1.43
2023-05-12T18:18:17.051Z,1.60
2023-05-12T18:20:44.670Z,2.25
2023-05-12T18:23:12.555Z,1.60
2023-05-12T18:25:42.847Z,1.77
2023-05-12T18:28:10.424Z,1.77
2023-05-12T18:30:38.057Z,2.08
2023-05-12T18:33:06.065Z,1.83
2023-05-12T18:35:33.693Z,1.60
2023-05-12T18:38:01.494Z,2.00
2023-05-12T18:40:29.208Z,1.50
2023-05-12T18:42:58.640Z,1.60
2023-05-12T18:45:26.360Z,1.52
2023-05-12T18:47:54.020Z,1.08
2023-05-12T18:50:21.610Z,1.90
2023-05-12T18:52:49.263Z,1.97
2023-05-12T18:55:16.829Z,1.80
2023-05-12T18:57:44.468Z,1.95
2023-05-12T19:00:16.507Z,1.35
2023-05-12T19:02:45.914Z,1.80
2023-05-12T19:05:13.678Z,1.60
2023-05-12T19:07:41.274Z,1.83
2023-05-12T19:10:10.359Z,1.92
2023-05-12T19:12:37.959Z,1.73
2023-05-12T19:15:05.932Z,1.80
2023-05-12T19:17:34.912Z,1.80
2023-05-12T19:20:02.464Z,2.20
2023-05-12T19:22:30.115Z,1.92
2023-05-12T19:24:58.123Z,2.33
2023-05-12T19:27:27.073Z,2.40
2023-05-12T19:29:55.152Z,2.70
2023-05-12T19:32:23.177Z,2.00
2023-05-12T19:34:52.163Z,2.22
2023-05-12T19:37:20.353Z,2.38
2023-05-12T19:39:48.191Z,2.60
2023-05-12T19:42:15.704Z,2.30
2023-05-12T19:44:43.700Z,2.35
2023-05-12T19:47:12.491Z,2.53
2023-05-12T19:49:40.083Z,3.20
2023-05-12T19:52:12.586Z,2.78
2023-05-12T19:54:40.928Z,2.40
2023-05-12T19:57:08.601Z,2.70
2023-05-12T19:59:36.171Z,2.75
2023-05-12T20:02:04.011Z,3.15
2023-05-12T20:04:31.483Z,3.20
2023-05-12T20:06:59.122Z,3.17
2023-05-12T20:09:28.715Z,3.00
2023-05-12T20:11:56.891Z,3.22
2023-05-12T20:14:24.435Z,3.30
2023-05-12T20:16:52.137Z,3.20
2023-05-12T20:19:19.834Z,2.83
2023-05-12T20:21:47.402Z,3.05
2023-05-12T20:24:15.028Z,3.78
2023-05-12T20:26:44.056Z,3.58
2023-05-12T20:29:11.985Z,3.95
2023-05-12T20:31:39.939Z,3.20
2023-05-12T20:34:07.526Z,3.35
2023-05-12T20:36:39.153Z,3.80
2023-05-12T20:39:07.912Z,3.78
2023-05-12T20:41:35.415Z,3.72
2023-05-12T20:44:04.898Z,4.13
2023-05-12T20:46:33.949Z,3.75
2023-05-12T20:49:03.229Z,3.85
2023-05-12T20:51:30.736Z,3.63
2023-05-12T20:53:58.454Z,3.95
2023-05-12T20:56:26.526Z,4.00
2023-05-12T20:58:54.114Z,3.63
2023-05-12T21:01:23.246Z,3.70
2023-05-12T21:03:50.905Z,3.25
2023-05-12T21:06:21.629Z,3.00
2023-05-12T21:08:49.269Z,3.87
2023-05-12T21:11:17.300Z,3.10
2023-05-12T21:13:45.158Z,3.53
2023-05-12T21:16:12.893Z,3.70
2023-05-12T21:18:41.840Z,3.53
2023-05-12T21:21:09.907Z,3.10
2023-05-12T21:23:37.784Z,3.47
2023-05-12T21:26:05.865Z,3.85
2023-05-12T21:28:33.594Z,3.55
2023-05-12T21:31:01.516Z,3.60
2023-05-12T21:33:29.582Z,3.60
2023-05-12T21:36:03.497Z,3.28
2023-05-12T21:38:32.102Z,3.42
2023-05-12T21:41:00.391Z,3.40
2023-05-12T21:43:28.425Z,3.72
2023-05-12T21:45:56.139Z,3.47
2023-05-12T21:48:24.824Z,3.30
2023-05-12T21:51:00.637Z,4.10
2023-05-12T21:53:28.764Z,4.00
2023-05-12T21:55:56.363Z,4.18
2023-05-12T21:58:24.151Z,4.33
2023-05-12T22:00:52.417Z,4.68
2023-05-12T22:03:27.670Z,4.10
2023-05-12T22:05:55.337Z,3.70
2023-05-12T22:08:28.057Z,4.30
2023-05-12T22:10:55.729Z,4.47
2023-05-12T22:13:23.340Z,3.47
2023-05-12T22:15:50.942Z,3.20
2023-05-12T22:18:18.954Z,3.78
2023-05-12T22:20:47.261Z,3.97
2023-05-12T22:23:14.887Z,3.53
2023-05-12T22:25:44.131Z,3.90
2023-05-12T22:28:12.092Z,3.83
2023-05-12T22:30:41.702Z,4.38
2023-05-12T22:33:09.566Z,3.97
2023-05-12T22:35:37.227Z,3.77
2023-05-12T22:38:04.935Z,4.40
2023-05-12T22:40:33.745Z,4.45
2023-05-12T22:43:02.720Z,4.10
2023-05-12T22:45:30.735Z,4.20
2023-05-12T22:47:58.495Z,3.50
2023-05-12T22:50:26.300Z,4.15
2023-05-12T22:52:57.242Z,4.15
2023-05-12T22:55:27.818Z,4.00
2023-05-12T22:57:56.001Z,4.07
2023-05-12T23:00:25.155Z,3.87
2023-05-12T23:02:52.913Z,3.53
2023-05-12T23:05:20.637Z,4.40
2023-05-12T23:07:48.430Z,3.67
2023-05-12T23:10:16.062Z,4.00
2023-05-12T23:12:43.643Z,3.90
2023-05-12T23:15:11.568Z,4.00
2023-05-12T23:17:40.568Z,4.30
2023-05-12T23:20:08.957Z,3.53
2023-05-12T23:22:36.547Z,3.50
2023-05-12T23:25:04.425Z,3.93
2023-05-12T23:27:32.206Z,3.78
2023-05-12T23:30:00.526Z,3.65
2023-05-12T23:32:28.498Z,3.90
2023-05-12T23:34:57.516Z,4.05
2023-05-12T23:37:25.468Z,3.60
2023-05-12T23:39:53.095Z,3.67
2023-05-12T23:42:20.654Z,4.10
2023-05-12T23:44:48.806Z,4.30
2023-05-12T23:47:16.739Z,4.07
2023-05-12T23:49:44.977Z,4.10
2023-05-12T23:52:13.901Z,4.38
2023-05-12T23:54:41.516Z,3.58
2023-05-12T23:57:09.070Z,4.10
2023-05-12T23:59:36.900Z,4.00
